Moormerland — V2BS — position and weather

sailwx.info

Track history (hours):
 
Tides and Currents Weather Stations Pressure Air Temp Water Temp Dewpoint Dewpoint Depression Visibility Wind Speed Wind Dir Waves Ship Positions

Moormerland

Last reported at 2017-Nov-20 00:31 UTC. Time now 2017-Nov-22 13:13 UTC.
Position N 45°16' E 036°28'.

Length 89 m; draft 4.3 m.

Type: Cargo ship. MMSI: 304785000.

Date/timePositionNaut miles runAvg speedWind from/ knotsBaromVisibWave heightAir tempDewpointWater temp
2017-Nov-20 00:31N 45°16' E 036°28'3 6.2
2017-Nov-20 00:00N 45°19' E 036°31'4 7.5
2017-Nov-19 23:30N 45°20' E 036°36'3 6.7
2017-Nov-19 23:00N 45°22' E 036°40'3 6.9
2017-Nov-19 22:30N 45°25' E 036°40'3 6.8
2017-Nov-19 22:01N 45°28' E 036°39'0 0.9
2017-Nov-19 21:29N 45°29' E 036°38'0 0.0
2017-Nov-19 20:59N 45°29' E 036°38'0 0.1
2017-Nov-19 20:26N 45°29' E 036°38'0 0.0
2017-Nov-19 19:58N 45°29' E 036°38'0 0.0
2017-Nov-19 19:29N 45°29' E 036°38'0 0.1
2017-Nov-19 18:58N 45°29' E 036°38'0 0.1
2017-Nov-19 18:23N 45°29' E 036°38'0 0.0
2017-Nov-19 17:58N 45°29' E 036°38'0 0.1
2017-Nov-19 17:22N 45°29' E 036°38'0 0.0
2017-Nov-19 16:55N 45°29' E 036°38'0 0.0
2017-Nov-19 15:22N 45°29' E 036°38'0 0.0
2017-Nov-19 14:52N 45°29' E 036°38'0 0.0
2017-Nov-19 14:28N 45°29' E 036°38'0 0.1
2017-Nov-19 13:58N 45°29' E 036°38'0 0.0
2017-Nov-19 13:28N 45°29' E 036°38'0 0.0
2017-Nov-19 12:58N 45°29' E 036°38'0 0.0
2017-Nov-19 12:28N 45°29' E 036°38'0 0.0
2017-Nov-19 11:58N 45°29' E 036°38'0 0.0
2017-Nov-19 11:28N 45°29' E 036°38'0 0.0
2017-Nov-19 10:58N 45°29' E 036°38'0 0.0
2017-Nov-19 10:28N 45°29' E 036°38'0 0.0
2017-Nov-19 09:58N 45°29' E 036°38'0 0.0
2017-Nov-19 09:25N 45°29' E 036°38'0 0.0
2017-Nov-19 08:58N 45°29' E 036°38'0 0.0
2017-Nov-19 08:28N 45°29' E 036°38'0 0.0
2017-Nov-19 07:58N 45°29' E 036°38'0 0.1
2017-Nov-19 07:26N 45°29' E 036°38'2 5.7
2017-Nov-19 07:00N 45°28' E 036°42'3 6.3
2017-Nov-19 06:30N 45°28' E 036°46'4 7.3
2017-Nov-19 06:00N 45°32' E 036°48'  
2017-Nov-12 22:28N 45°31' E 036°48'4 8.1
2017-Nov-12 22:00N 45°28' E 036°45'4 7.3
2017-Nov-12 21:30N 45°25' E 036°41'4 8.5
2017-Nov-12 21:00N 45°21' E 036°40'3 6.5
2017-Nov-12 20:30N 45°20' E 036°36'4 8.3
2017-Nov-12 20:00N 45°19' E 036°30'2 4.2
2017-Nov-12 19:30N 45°17' E 036°29'2 3.8
2017-Nov-12 18:59N 45°15' E 036°29'2 3.8
2017-Nov-12 18:30N 45°13' E 036°30'0 0.2
2017-Nov-12 17:56N 45°13' E 036°30'0 0.0
2017-Nov-12 17:29N 45°13' E 036°30'0 0.0
2017-Nov-12 16:59N 45°13' E 036°30'0 0.0
2017-Nov-12 16:23N 45°13' E 036°30'0 0.0
2017-Nov-12 15:57N 45°13' E 036°30'0 0.0
2017-Nov-12 15:30N 45°13' E 036°30'0 0.0
2017-Nov-12 15:00N 45°13' E 036°30'0 0.0
2017-Nov-12 14:18N 45°13' E 036°30'0 0.0
2017-Nov-12 13:57N 45°13' E 036°30'0 0.0
2017-Nov-12 13:27N 45°13' E 036°30'0 0.0
2017-Nov-12 13:00N 45°13' E 036°30'0 0.0
2017-Nov-12 12:30N 45°13' E 036°30'2 3.8
2017-Nov-12 12:00N 45°12' E 036°28'6 7.3
2017-Nov-12 11:13N 45°07' E 036°30'2 2.0
2017-Nov-12 10:03N 45°04' E 036°29'2 2.9
2017-Nov-12 09:23N 45°06' E 036°30'2 3.8
2017-Nov-12 08:59N 45°08' E 036°29'1 2.9
2017-Nov-12 08:29N 45°09' E 036°28'2 3.9
2017-Nov-12 08:00N 45°11' E 036°28'0 0.3
2017-Nov-12 07:27N 45°11' E 036°28'3 5.7
2017-Nov-12 06:56N 45°08' E 036°30'4 8.5
2017-Nov-12 06:25N 45°04' E 036°31'  
Track history (hours):
 
Tides and Currents Weather Stations Pressure Air Temp Water Temp Dewpoint Dewpoint Depression Visibility Wind Speed Wind Dir Waves Ship Positions

Moormerland

Last reported at 2017-Nov-20 00:31 UTC. Time now 2017-Nov-22 13:13 UTC.
Position N 45°16' E 036°28'.

Length 89 m; draft 4.3 m.

Type: Cargo ship. MMSI: 304785000.

Date/timePositionNaut miles runAvg speedWind from/ knotsBaromVisibWave heightAir tempDewpointWater temp
2017-Nov-20 00:31N 45°16' E 036°28'3 6.2
2017-Nov-20 00:00N 45°19' E 036°31'4 7.5
2017-Nov-19 23:30N 45°20' E 036°36'3 6.7
2017-Nov-19 23:00N 45°22' E 036°40'3 6.9
2017-Nov-19 22:30N 45°25' E 036°40'3 6.8
2017-Nov-19 22:01N 45°28' E 036°39'0 0.9
2017-Nov-19 21:29N 45°29' E 036°38'0 0.0
2017-Nov-19 20:59N 45°29' E 036°38'0 0.1
2017-Nov-19 20:26N 45°29' E 036°38'0 0.0
2017-Nov-19 19:58N 45°29' E 036°38'0 0.0
2017-Nov-19 19:29N 45°29' E 036°38'0 0.1
2017-Nov-19 18:58N 45°29' E 036°38'0 0.1
2017-Nov-19 18:23N 45°29' E 036°38'0 0.0
2017-Nov-19 17:58N 45°29' E 036°38'0 0.1
2017-Nov-19 17:22N 45°29' E 036°38'0 0.0
2017-Nov-19 16:55N 45°29' E 036°38'0 0.0
2017-Nov-19 15:22N 45°29' E 036°38'0 0.0
2017-Nov-19 14:52N 45°29' E 036°38'0 0.0
2017-Nov-19 14:28N 45°29' E 036°38'0 0.1
2017-Nov-19 13:58N 45°29' E 036°38'0 0.0
2017-Nov-19 13:28N 45°29' E 036°38'0 0.0
2017-Nov-19 12:58N 45°29' E 036°38'0 0.0
2017-Nov-19 12:28N 45°29' E 036°38'0 0.0
2017-Nov-19 11:58N 45°29' E 036°38'0 0.0
2017-Nov-19 11:28N 45°29' E 036°38'0 0.0
2017-Nov-19 10:58N 45°29' E 036°38'0 0.0
2017-Nov-19 10:28N 45°29' E 036°38'0 0.0
2017-Nov-19 09:58N 45°29' E 036°38'0 0.0
2017-Nov-19 09:25N 45°29' E 036°38'0 0.0
2017-Nov-19 08:58N 45°29' E 036°38'0 0.0
2017-Nov-19 08:28N 45°29' E 036°38'0 0.0
2017-Nov-19 07:58N 45°29' E 036°38'0 0.1
2017-Nov-19 07:26N 45°29' E 036°38'2 5.7
2017-Nov-19 07:00N 45°28' E 036°42'3 6.3
2017-Nov-19 06:30N 45°28' E 036°46'4 7.3
2017-Nov-19 06:00N 45°32' E 036°48'  
2017-Nov-12 22:28N 45°31' E 036°48'4 8.1
2017-Nov-12 22:00N 45°28' E 036°45'4 7.3
2017-Nov-12 21:30N 45°25' E 036°41'4 8.5
2017-Nov-12 21:00N 45°21' E 036°40'3 6.5
2017-Nov-12 20:30N 45°20' E 036°36'4 8.3
2017-Nov-12 20:00N 45°19' E 036°30'2 4.2
2017-Nov-12 19:30N 45°17' E 036°29'2 3.8
2017-Nov-12 18:59N 45°15' E 036°29'2 3.8
2017-Nov-12 18:30N 45°13' E 036°30'0 0.2
2017-Nov-12 17:56N 45°13' E 036°30'0 0.0
2017-Nov-12 17:29N 45°13' E 036°30'0 0.0
2017-Nov-12 16:59N 45°13' E 036°30'0 0.0
2017-Nov-12 16:23N 45°13' E 036°30'0 0.0
2017-Nov-12 15:57N 45°13' E 036°30'0 0.0
2017-Nov-12 15:30N 45°13' E 036°30'0 0.0
2017-Nov-12 15:00N 45°13' E 036°30'0 0.0
2017-Nov-12 14:18N 45°13' E 036°30'0 0.0
2017-Nov-12 13:57N 45°13' E 036°30'0 0.0
2017-Nov-12 13:27N 45°13' E 036°30'0 0.0
2017-Nov-12 13:00N 45°13' E 036°30'0 0.0
2017-Nov-12 12:30N 45°13' E 036°30'2 3.8
2017-Nov-12 12:00N 45°12' E 036°28'6 7.3
2017-Nov-12 11:13N 45°07' E 036°30'2 2.0
2017-Nov-12 10:03N 45°04' E 036°29'2 2.9
2017-Nov-12 09:23N 45°06' E 036°30'2 3.8
2017-Nov-12 08:59N 45°08' E 036°29'1 2.9
2017-Nov-12 08:29N 45°09' E 036°28'2 3.9
2017-Nov-12 08:00N 45°11' E 036°28'0 0.3
2017-Nov-12 07:27N 45°11' E 036°28'3 5.7
2017-Nov-12 06:56N 45°08' E 036°30'4 8.5
2017-Nov-12 06:25N 45°04' E 036°31'  

Dump ship's entire track history